sensor_id;sensor_type;location;lat;lon;timestamp;P1;durP1;ratioP1;P2;durP2;ratioP2
41546;SDS011;27271;45.412;10.852;2022-11-20T00:03:27;6.95;;;3.63;;
41546;SDS011;27271;45.412;10.852;2022-11-20T00:06:50;9.32;;;4.32;;
41546;SDS011;27271;45.412;10.852;2022-11-20T00:10:24;6.78;;;3.55;;
41546;SDS011;27271;45.412;10.852;2022-11-20T00:14:19;7.15;;;3.72;;
41546;SDS011;27271;45.412;10.852;2022-11-20T00:17:45;7.28;;;4.03;;
41546;SDS011;27271;45.412;10.852;2022-11-20T00:21:16;6.95;;;3.38;;
41546;SDS011;27271;45.412;10.852;2022-11-20T00:24:45;7.70;;;4.47;;
41546;SDS011;27271;45.412;10.852;2022-11-20T00:28:20;8.00;;;4.65;;
41546;SDS011;27271;45.412;10.852;2022-11-20T00:31:42;8.38;;;4.43;;
41546;SDS011;27271;45.412;10.852;2022-11-20T00:35:19;7.28;;;3.47;;
41546;SDS011;27271;45.412;10.852;2022-11-20T00:38:51;8.70;;;4.65;;
41546;SDS011;27271;45.412;10.852;2022-11-20T00:42:21;8.88;;;3.65;;
41546;SDS011;27271;45.412;10.852;2022-11-20T00:45:45;8.90;;;4.20;;
41546;SDS011;27271;45.412;10.852;2022-11-20T00:49:18;7.70;;;4.35;;
41546;SDS011;27271;45.412;10.852;2022-11-20T00:53:03;6.35;;;3.90;;
41546;SDS011;27271;45.412;10.852;2022-11-20T00:56:25;6.88;;;3.78;;
41546;SDS011;27271;45.412;10.852;2022-11-20T00:59:58;8.02;;;3.92;;
41546;SDS011;27271;45.412;10.852;2022-11-20T01:03:34;6.82;;;3.95;;
41546;SDS011;27271;45.412;10.852;2022-11-20T01:07:09;7.00;;;3.95;;
41546;SDS011;27271;45.412;10.852;2022-11-20T01:10:58;8.98;;;4.50;;
41546;SDS011;27271;45.412;10.852;2022-11-20T01:14:46;8.20;;;4.35;;
41546;SDS011;27271;45.412;10.852;2022-11-20T01:18:13;9.73;;;5.30;;
41546;SDS011;27271;45.412;10.852;2022-11-20T01:29:23;8.88;;;4.57;;
41546;SDS011;27271;45.412;10.852;2022-11-20T01:32:46;7.05;;;4.57;;
41546;SDS011;27271;45.412;10.852;2022-11-20T01:37:04;8.57;;;4.35;;
41546;SDS011;27271;45.412;10.852;2022-11-20T01:40:30;7.05;;;3.75;;
41546;SDS011;27271;45.412;10.852;2022-11-20T01:43:52;15.80;;;4.40;;
41546;SDS011;27271;45.412;10.852;2022-11-20T01:47:16;7.53;;;4.20;;
41546;SDS011;27271;45.412;10.852;2022-11-20T01:50:54;6.78;;;4.18;;
41546;SDS011;27271;45.412;10.852;2022-11-20T01:58:36;8.57;;;4.22;;
41546;SDS011;27271;45.412;10.852;2022-11-20T02:02:04;6.85;;;4.25;;
41546;SDS011;27271;45.412;10.852;2022-11-20T02:08:57;8.63;;;4.28;;
41546;SDS011;27271;45.412;10.852;2022-11-20T02:12:19;6.70;;;3.90;;
41546;SDS011;27271;45.412;10.852;2022-11-20T02:15:59;7.60;;;4.35;;
41546;SDS011;27271;45.412;10.852;2022-11-20T02:26:48;6.60;;;4.00;;
41546;SDS011;27271;45.412;10.852;2022-11-20T02:30:20;8.10;;;4.70;;
41546;SDS011;27271;45.412;10.852;2022-11-20T02:38:50;8.20;;;4.83;;
41546;SDS011;27271;45.412;10.852;2022-11-20T02:42:12;9.52;;;4.95;;
41546;SDS011;27271;45.412;10.852;2022-11-20T02:45:35;9.07;;;4.18;;
41546;SDS011;27271;45.412;10.852;2022-11-20T02:48:58;6.05;;;3.72;;
41546;SDS011;27271;45.412;10.852;2022-11-20T02:52:26;8.35;;;4.90;;
41546;SDS011;27271;45.412;10.852;2022-11-20T02:55:51;9.52;;;4.55;;
41546;SDS011;27271;45.412;10.852;2022-11-20T02:59:13;9.25;;;4.05;;
41546;SDS011;27271;45.412;10.852;2022-11-20T03:06:42;6.65;;;3.60;;
41546;SDS011;27271;45.412;10.852;2022-11-20T03:10:04;7.70;;;3.67;;
41546;SDS011;27271;45.412;10.852;2022-11-20T03:13:52;6.32;;;3.03;;
41546;SDS011;27271;45.412;10.852;2022-11-20T03:17:29;4.20;;;2.75;;
41546;SDS011;27271;45.412;10.852;2022-11-20T03:21:09;4.33;;;2.23;;
41546;SDS011;27271;45.412;10.852;2022-11-20T03:25:04;4.28;;;2.38;;
41546;SDS011;27271;45.412;10.852;2022-11-20T03:28:26;5.13;;;2.65;;
41546;SDS011;27271;45.412;10.852;2022-11-20T03:31:52;4.72;;;2.25;;
41546;SDS011;27271;45.412;10.852;2022-11-20T03:35:26;3.58;;;2.35;;
41546;SDS011;27271;45.412;10.852;2022-11-20T03:39:22;3.42;;;1.83;;
41546;SDS011;27271;45.412;10.852;2022-11-20T03:43:02;4.47;;;2.30;;
41546;SDS011;27271;45.412;10.852;2022-11-20T03:46:31;3.38;;;1.92;;
41546;SDS011;27271;45.412;10.852;2022-11-20T03:50:20;4.32;;;2.22;;
41546;SDS011;27271;45.412;10.852;2022-11-20T03:53:50;3.75;;;1.90;;
41546;SDS011;27271;45.412;10.852;2022-11-20T03:57:24;9.90;;;2.58;;
41546;SDS011;27271;45.412;10.852;2022-11-20T04:01:03;4.93;;;2.40;;
41546;SDS011;27271;45.412;10.852;2022-11-20T04:05:01;5.35;;;2.08;;
41546;SDS011;27271;45.412;10.852;2022-11-20T04:08:28;3.58;;;1.85;;
41546;SDS011;27271;45.412;10.852;2022-11-20T04:12:06;5.70;;;1.83;;
41546;SDS011;27271;45.412;10.852;2022-11-20T04:15:48;4.93;;;2.13;;
41546;SDS011;27271;45.412;10.852;2022-11-20T04:19:38;2.30;;;1.67;;
41546;SDS011;27271;45.412;10.852;2022-11-20T04:23:01;3.33;;;1.70;;
41546;SDS011;27271;45.412;10.852;2022-11-20T04:26:42;2.87;;;1.43;;
41546;SDS011;27271;45.412;10.852;2022-11-20T04:30:33;3.33;;;2.10;;
41546;SDS011;27271;45.412;10.852;2022-11-20T04:34:13;3.88;;;1.98;;
41546;SDS011;27271;45.412;10.852;2022-11-20T04:37:45;3.15;;;1.77;;
41546;SDS011;27271;45.412;10.852;2022-11-20T04:41:22;3.22;;;1.98;;
41546;SDS011;27271;45.412;10.852;2022-11-20T04:49:25;2.67;;;2.15;;
41546;SDS011;27271;45.412;10.852;2022-11-20T04:52:48;3.08;;;2.13;;
41546;SDS011;27271;45.412;10.852;2022-11-20T04:56:11;3.67;;;2.15;;
41546;SDS011;27271;45.412;10.852;2022-11-20T04:59:54;3.60;;;2.40;;
41546;SDS011;27271;45.412;10.852;2022-11-20T05:03:17;3.42;;;2.33;;
41546;SDS011;27271;45.412;10.852;2022-11-20T05:26:24;3.97;;;2.53;;
41546;SDS011;27271;45.412;10.852;2022-11-20T05:29:46;4.38;;;2.20;;
41546;SDS011;27271;45.412;10.852;2022-11-20T05:33:10;4.05;;;2.22;;
41546;SDS011;27271;45.412;10.852;2022-11-20T05:36:38;4.57;;;1.98;;
41546;SDS011;27271;45.412;10.852;2022-11-20T05:45:21;3.60;;;2.40;;
41546;SDS011;27271;45.412;10.852;2022-11-20T05:49:45;4.60;;;2.08;;
41546;SDS011;27271;45.412;10.852;2022-11-20T05:58:30;4.22;;;2.45;;
41546;SDS011;27271;45.412;10.852;2022-11-20T06:02:28;5.57;;;2.35;;
41546;SDS011;27271;45.412;10.852;2022-11-20T06:06:07;3.15;;;2.17;;
41546;SDS011;27271;45.412;10.852;2022-11-20T06:09:50;6.47;;;2.50;;
41546;SDS011;27271;45.412;10.852;2022-11-20T06:13:23;5.65;;;2.33;;
41546;SDS011;27271;45.412;10.852;2022-11-20T06:17:13;4.47;;;2.30;;
41546;SDS011;27271;45.412;10.852;2022-11-20T06:20:41;3.28;;;2.25;;
41546;SDS011;27271;45.412;10.852;2022-11-20T06:24:09;4.85;;;2.38;;
41546;SDS011;27271;45.412;10.852;2022-11-20T06:27:35;4.20;;;2.35;;
41546;SDS011;27271;45.412;10.852;2022-11-20T06:31:01;5.47;;;2.70;;
41546;SDS011;27271;45.412;10.852;2022-11-20T06:34:32;5.88;;;2.63;;
41546;SDS011;27271;45.412;10.852;2022-11-20T06:37:55;4.20;;;2.30;;
41546;SDS011;27271;45.412;10.852;2022-11-20T06:41:18;7.32;;;3.40;;
41546;SDS011;27271;45.412;10.852;2022-11-20T06:44:44;6.68;;;2.40;;
41546;SDS011;27271;45.412;10.852;2022-11-20T06:48:08;3.15;;;1.92;;
41546;SDS011;27271;45.412;10.852;2022-11-20T06:51:31;2.47;;;2.15;;
41546;SDS011;27271;45.412;10.852;2022-11-20T06:54:57;5.88;;;2.53;;
41546;SDS011;27271;45.412;10.852;2022-11-20T06:58:48;4.38;;;2.40;;
41546;SDS011;27271;45.412;10.852;2022-11-20T07:02:11;5.60;;;2.55;;
41546;SDS011;27271;45.412;10.852;2022-11-20T07:05:40;3.55;;;1.75;;
41546;SDS011;27271;45.412;10.852;2022-11-20T07:09:36;2.97;;;1.83;;
41546;SDS011;27271;45.412;10.852;2022-11-20T07:13:11;5.28;;;3.03;;
41546;SDS011;27271;45.412;10.852;2022-11-20T07:16:33;6.45;;;2.65;;
41546;SDS011;27271;45.412;10.852;2022-11-20T07:19:57;6.07;;;3.45;;
41546;SDS011;27271;45.412;10.852;2022-11-20T07:23:20;9.73;;;5.03;;
41546;SDS011;27271;45.412;10.852;2022-11-20T07:26:53;9.80;;;5.90;;
41546;SDS011;27271;45.412;10.852;2022-11-20T07:39:19;7.53;;;2.85;;
41546;SDS011;27271;45.412;10.852;2022-11-20T07:48:26;4.25;;;1.90;;
41546;SDS011;27271;45.412;10.852;2022-11-20T07:56:55;2.80;;;1.90;;
41546;SDS011;27271;45.412;10.852;2022-11-20T08:09:40;2.90;;;1.83;;
41546;SDS011;27271;45.412;10.852;2022-11-20T08:19:12;3.10;;;1.70;;
41546;SDS011;27271;45.412;10.852;2022-11-20T08:23:09;2.80;;;1.67;;
41546;SDS011;27271;45.412;10.852;2022-11-20T08:36:42;2.00;;;1.20;;
41546;SDS011;27271;45.412;10.852;2022-11-20T08:40:05;1.92;;;1.23;;
41546;SDS011;27271;45.412;10.852;2022-11-20T08:57:50;2.97;;;1.40;;
41546;SDS011;27271;45.412;10.852;2022-11-20T09:06:21;3.08;;;1.23;;
41546;SDS011;27271;45.412;10.852;2022-11-20T09:14:52;7.65;;;2.88;;
41546;SDS011;27271;45.412;10.852;2022-11-20T09:18:37;2.38;;;1.73;;
41546;SDS011;27271;45.412;10.852;2022-11-20T09:27:05;2.88;;;1.40;;
41546;SDS011;27271;45.412;10.852;2022-11-20T09:35:29;2.20;;;1.23;;
41546;SDS011;27271;45.412;10.852;2022-11-20T09:57:30;3.50;;;2.40;;
41546;SDS011;27271;45.412;10.852;2022-11-20T10:44:03;5.28;;;2.47;;
41546;SDS011;27271;45.412;10.852;2022-11-20T10:52:49;6.18;;;2.92;;
41546;SDS011;27271;45.412;10.852;2022-11-20T11:03:55;4.50;;;1.98;;
41546;SDS011;27271;45.412;10.852;2022-11-20T11:16:21;5.45;;;2.38;;
41546;SDS011;27271;45.412;10.852;2022-11-20T11:20:21;4.43;;;2.35;;
41546;SDS011;27271;45.412;10.852;2022-11-20T11:30:01;5.63;;;2.80;;
41546;SDS011;27271;45.412;10.852;2022-11-20T11:35:03;6.45;;;3.13;;
41546;SDS011;27271;45.412;10.852;2022-11-20T11:38:50;6.50;;;2.97;;
41546;SDS011;27271;45.412;10.852;2022-11-20T11:43:36;4.65;;;2.97;;
41546;SDS011;27271;45.412;10.852;2022-11-20T12:06:23;8.63;;;3.80;;
41546;SDS011;27271;45.412;10.852;2022-11-20T13:01:21;24.98;;;11.25;;
41546;SDS011;27271;45.412;10.852;2022-11-20T13:21:18;22.90;;;9.60;;
41546;SDS011;27271;45.412;10.852;2022-11-20T13:29:41;20.77;;;10.13;;
41546;SDS011;27271;45.412;10.852;2022-11-20T13:38:13;16.23;;;9.37;;
41546;SDS011;27271;45.412;10.852;2022-11-20T13:41:58;19.40;;;9.38;;
41546;SDS011;27271;45.412;10.852;2022-11-20T13:45:57;20.98;;;9.98;;
41546;SDS011;27271;45.412;10.852;2022-11-20T13:49:55;23.35;;;10.98;;
41546;SDS011;27271;45.412;10.852;2022-11-20T14:01:26;21.33;;;10.25;;
41546;SDS011;27271;45.412;10.852;2022-11-20T14:04:54;27.60;;;13.48;;
41546;SDS011;27271;45.412;10.852;2022-11-20T14:08:37;24.58;;;12.45;;
41546;SDS011;27271;45.412;10.852;2022-11-20T14:12:37;25.30;;;11.68;;
41546;SDS011;27271;45.412;10.852;2022-11-20T14:16:24;24.33;;;12.70;;
41546;SDS011;27271;45.412;10.852;2022-11-20T14:20:29;25.27;;;12.13;;
41546;SDS011;27271;45.412;10.852;2022-11-20T14:24:23;26.48;;;12.23;;
41546;SDS011;27271;45.412;10.852;2022-11-20T14:28:05;27.67;;;12.80;;
41546;SDS011;27271;45.412;10.852;2022-11-20T14:32:29;25.88;;;13.73;;
41546;SDS011;27271;45.412;10.852;2022-11-20T14:36:15;26.25;;;13.85;;
41546;SDS011;27271;45.412;10.852;2022-11-20T14:39:50;26.45;;;12.52;;
41546;SDS011;27271;45.412;10.852;2022-11-20T14:47:43;23.58;;;12.43;;
41546;SDS011;27271;45.412;10.852;2022-11-20T14:51:34;27.13;;;13.55;;
41546;SDS011;27271;45.412;10.852;2022-11-20T14:56:04;26.27;;;12.10;;
41546;SDS011;27271;45.412;10.852;2022-11-20T15:00:56;28.48;;;12.45;;
41546;SDS011;27271;45.412;10.852;2022-11-20T15:05:00;26.08;;;11.65;;
41546;SDS011;27271;45.412;10.852;2022-11-20T15:14:08;23.27;;;11.88;;
41546;SDS011;27271;45.412;10.852;2022-11-20T15:18:19;24.40;;;11.55;;
41546;SDS011;27271;45.412;10.852;2022-11-20T15:22:11;21.63;;;11.18;;
41546;SDS011;27271;45.412;10.852;2022-11-20T15:30:47;25.23;;;11.43;;
41546;SDS011;27271;45.412;10.852;2022-11-20T15:35:22;26.52;;;12.45;;
41546;SDS011;27271;45.412;10.852;2022-11-20T15:40:13;27.45;;;12.40;;
41546;SDS011;27271;45.412;10.852;2022-11-20T15:44:02;27.63;;;13.57;;
41546;SDS011;27271;45.412;10.852;2022-11-20T16:03:52;31.30;;;16.08;;
41546;SDS011;27271;45.412;10.852;2022-11-20T16:12:46;31.58;;;15.73;;
41546;SDS011;27271;45.412;10.852;2022-11-20T16:20:24;29.38;;;14.40;;
41546;SDS011;27271;45.412;10.852;2022-11-20T16:24:16;30.80;;;14.65;;
41546;SDS011;27271;45.412;10.852;2022-11-20T16:27:46;30.45;;;14.63;;
41546;SDS011;27271;45.412;10.852;2022-11-20T16:31:38;28.48;;;13.60;;
41546;SDS011;27271;45.412;10.852;2022-11-20T16:36:15;36.33;;;15.32;;
41546;SDS011;27271;45.412;10.852;2022-11-20T16:45:35;30.55;;;14.85;;
41546;SDS011;27271;45.412;10.852;2022-11-20T16:50:49;27.92;;;13.60;;
41546;SDS011;27271;45.412;10.852;2022-11-20T16:55:33;32.55;;;14.30;;
41546;SDS011;27271;45.412;10.852;2022-11-20T16:59:24;47.70;;;19.85;;
41546;SDS011;27271;45.412;10.852;2022-11-20T17:04:22;70.07;;;30.33;;
41546;SDS011;27271;45.412;10.852;2022-11-20T17:08:55;46.22;;;23.58;;
41546;SDS011;27271;45.412;10.852;2022-11-20T17:12:30;51.95;;;20.25;;
41546;SDS011;27271;45.412;10.852;2022-11-20T17:16:26;36.20;;;16.10;;
41546;SDS011;27271;45.412;10.852;2022-11-20T17:24:14;52.70;;;20.42;;
41546;SDS011;27271;45.412;10.852;2022-11-20T17:27:42;56.28;;;21.35;;
41546;SDS011;27271;45.412;10.852;2022-11-20T17:32:21;79.75;;;26.45;;
41546;SDS011;27271;45.412;10.852;2022-11-20T17:41:15;50.38;;;19.27;;
41546;SDS011;27271;45.412;10.852;2022-11-20T17:44:45;47.28;;;19.70;;
41546;SDS011;27271;45.412;10.852;2022-11-20T17:48:34;40.22;;;18.85;;
41546;SDS011;27271;45.412;10.852;2022-11-20T17:56:09;47.92;;;19.67;;
41546;SDS011;27271;45.412;10.852;2022-11-20T17:59:54;45.40;;;20.30;;
41546;SDS011;27271;45.412;10.852;2022-11-20T18:03:18;55.42;;;23.17;;
41546;SDS011;27271;45.412;10.852;2022-11-20T18:06:56;88.07;;;35.88;;
41546;SDS011;27271;45.412;10.852;2022-11-20T18:10:21;44.85;;;20.52;;
41546;SDS011;27271;45.412;10.852;2022-11-20T18:13:58;51.55;;;21.05;;
41546;SDS011;27271;45.412;10.852;2022-11-20T18:18:00;46.72;;;21.52;;
41546;SDS011;27271;45.412;10.852;2022-11-20T18:30:55;40.08;;;18.75;;
41546;SDS011;27271;45.412;10.852;2022-11-20T18:34:21;48.33;;;21.70;;
41546;SDS011;27271;45.412;10.852;2022-11-20T18:37:46;47.33;;;21.38;;
41546;SDS011;27271;45.412;10.852;2022-11-20T18:41:15;47.63;;;20.70;;
41546;SDS011;27271;45.412;10.852;2022-11-20T18:44:58;46.85;;;22.58;;
41546;SDS011;27271;45.412;10.852;2022-11-20T18:53:25;57.13;;;24.52;;
41546;SDS011;27271;45.412;10.852;2022-11-20T19:05:13;40.17;;;20.42;;
41546;SDS011;27271;45.412;10.852;2022-11-20T19:17:03;44.15;;;19.77;;
41546;SDS011;27271;45.412;10.852;2022-11-20T19:20:44;50.58;;;22.73;;
41546;SDS011;27271;45.412;10.852;2022-11-20T19:30:02;41.07;;;18.13;;
41546;SDS011;27271;45.412;10.852;2022-11-20T19:34:21;40.22;;;18.05;;
41546;SDS011;27271;45.412;10.852;2022-11-20T19:47:28;41.95;;;19.52;;
41546;SDS011;27271;45.412;10.852;2022-11-20T19:51:42;61.08;;;31.05;;
41546;SDS011;27271;45.412;10.852;2022-11-20T19:55:26;48.30;;;21.92;;
41546;SDS011;27271;45.412;10.852;2022-11-20T20:26:05;38.65;;;17.33;;
41546;SDS011;27271;45.412;10.852;2022-11-20T20:29:39;36.22;;;18.50;;
41546;SDS011;27271;45.412;10.852;2022-11-20T20:33:28;39.67;;;18.30;;
41546;SDS011;27271;45.412;10.852;2022-11-20T20:41:08;43.22;;;18.45;;
41546;SDS011;27271;45.412;10.852;2022-11-20T20:54:05;47.42;;;23.70;;
41546;SDS011;27271;45.412;10.852;2022-11-20T21:09:35;49.60;;;20.10;;
41546;SDS011;27271;45.412;10.852;2022-11-20T21:14:21;42.75;;;19.55;;
41546;SDS011;27271;45.412;10.852;2022-11-20T21:33:08;38.88;;;16.67;;
41546;SDS011;27271;45.412;10.852;2022-11-20T21:36:41;39.20;;;19.10;;
41546;SDS011;27271;45.412;10.852;2022-11-20T21:40:12;51.20;;;19.70;;
41546;SDS011;27271;45.412;10.852;2022-11-20T21:48:56;40.08;;;18.13;;
41546;SDS011;27271;45.412;10.852;2022-11-20T21:52:27;36.42;;;17.48;;
41546;SDS011;27271;45.412;10.852;2022-11-20T21:56:46;48.75;;;19.33;;
41546;SDS011;27271;45.412;10.852;2022-11-20T22:00:08;42.05;;;18.35;;
41546;SDS011;27271;45.412;10.852;2022-11-20T22:03:35;48.25;;;20.80;;
41546;SDS011;27271;45.412;10.852;2022-11-20T22:06:57;48.22;;;20.15;;
41546;SDS011;27271;45.412;10.852;2022-11-20T22:10:23;37.60;;;18.10;;
41546;SDS011;27271;45.412;10.852;2022-11-20T22:13:45;42.05;;;18.02;;
41546;SDS011;27271;45.412;10.852;2022-11-20T22:17:32;32.63;;;16.73;;
41546;SDS011;27271;45.412;10.852;2022-11-20T22:21:13;39.53;;;17.08;;
41546;SDS011;27271;45.412;10.852;2022-11-20T22:28:20;37.13;;;15.77;;
41546;SDS011;27271;45.412;10.852;2022-11-20T22:32:32;38.65;;;16.40;;
41546;SDS011;27271;45.412;10.852;2022-11-20T22:36:02;33.33;;;15.35;;
41546;SDS011;27271;45.412;10.852;2022-11-20T22:39:28;36.95;;;16.40;;
41546;SDS011;27271;45.412;10.852;2022-11-20T22:43:17;34.05;;;16.55;;
41546;SDS011;27271;45.412;10.852;2022-11-20T22:46:42;39.97;;;18.83;;
41546;SDS011;27271;45.412;10.852;2022-11-20T22:50:08;38.63;;;18.30;;
41546;SDS011;27271;45.412;10.852;2022-11-20T22:53:31;40.63;;;17.73;;
41546;SDS011;27271;45.412;10.852;2022-11-20T22:56:54;38.65;;;18.42;;
41546;SDS011;27271;45.412;10.852;2022-11-20T23:00:16;40.65;;;19.38;;
41546;SDS011;27271;45.412;10.852;2022-11-20T23:03:39;37.17;;;17.73;;
41546;SDS011;27271;45.412;10.852;2022-11-20T23:07:05;33.47;;;17.85;;
41546;SDS011;27271;45.412;10.852;2022-11-20T23:10:27;42.75;;;19.85;;
41546;SDS011;27271;45.412;10.852;2022-11-20T23:13:57;39.30;;;17.90;;
41546;SDS011;27271;45.412;10.852;2022-11-20T23:17:22;42.45;;;18.77;;
41546;SDS011;27271;45.412;10.852;2022-11-20T23:20:47;44.42;;;19.20;;
41546;SDS011;27271;45.412;10.852;2022-11-20T23:24:11;36.95;;;18.80;;
41546;SDS011;27271;45.412;10.852;2022-11-20T23:27:35;41.78;;;19.05;;
41546;SDS011;27271;45.412;10.852;2022-11-20T23:30:57;45.53;;;19.83;;
41546;SDS011;27271;45.412;10.852;2022-11-20T23:34:21;42.60;;;19.58;;
41546;SDS011;27271;45.412;10.852;2022-11-20T23:37:43;39.13;;;18.05;;
41546;SDS011;27271;45.412;10.852;2022-11-20T23:41:17;39.03;;;19.90;;
41546;SDS011;27271;45.412;10.852;2022-11-20T23:44:53;43.53;;;20.17;;
41546;SDS011;27271;45.412;10.852;2022-11-20T23:48:16;37.65;;;18.50;;
41546;SDS011;27271;45.412;10.852;2022-11-20T23:51:39;39.22;;;17.83;;
41546;SDS011;27271;45.412;10.852;2022-11-20T23:55:01;50.33;;;20.35;;
41546;SDS011;27271;45.412;10.852;2022-11-20T23:58:24;41.42;;;19.40;;
